KABR

Aberdeen Regional Airport

Aberdeen, South Dakota, USA
METAR KABR 191753Z AUTO 03010KT 10SM FEW009 OVC020 14/13 A3002 RMK AO2 SLP168 60015 T01390133 10139 20133 51019
Observed Flight Rules
Sep-19 @ 17:53 UTC (55 minutes ago) Marginal Visual Flight Rules
Wind Visibility Clouds
30° at 10 knots 10 miles
  • Few at 900' AGL
  • Overcast at 2,000' AGL
Temperatures Readings
Current 14°C / 57°F
Dewpoint 13°C / 55°F
Humidity 94%
Altimeter 30.02" Hg
Pressure 1016.8 hPa
Elevation 397
METAR KABR 191753Z AUTO 03010KT 10SM FEW009 OVC020 14/13 A3002 RMK AO2 SLP168 60015 T01390133 10139 20133 51019
Observed Flight Rules
Sep-19 @ 17:53 UTC
(55 minutes ago)
MVFR
Wind Visibility
30° at 10 knots 10 miles
Clouds
  • Few at 900' AGL
  • Overcast at 2,000' AGL
Temperature Dewpoint
14°C / 57°F 13°C / 55°F
Humidity Altimeter Pressure
94% 30.02" Hg 1016.8 hPa